CheckWX is a tool to help pilots better visualize weather data.  It is not intended as a substitute for an official pre-flight weather briefing.

05:22:03 UTC

HKNW METAR
Nairobi Wilson Airport
Nairobi, Kenya
Current

3 hours ago

HKNW 200200Z 11006KT 9999 BKN020 18/13 Q1019
Observed
Feb-20 @ 02:00 UTC
Wind
  • 110° at 6 KTS
Visibility
10,000+ meters
Flight Rules
MVFR
Cloud Levels
  • Broken at 2,000' AGL
Temperature
18°C / 64°F
Dewpoint
13°C / 55°F
Humidity
73%
Altimeter
30.09" Hg
Pressure
1018.92 hPa
Previous

5 hours ago

HKNW 200000Z 02006KT CAVOK 20/13 Q1019
Observed
Feb-20 @ 00:00 UTC
Wind
  • 020° at 6 KTS
Visibility
10,000+ meters
Flight Rules
VFR
Cloud Levels
  • Clear skies
Temperature
20°C / 68°F
Dewpoint
13°C / 55°F
Humidity
64%
Altimeter
30.09" Hg
Pressure
1018.92 hPa
Previous

8 hours ago

HKNW 192100Z 08012KT 9999 SCT024 22/13 Q1020
Observed
Feb-19 @ 21:00 UTC
Wind
  • 080° at 12 KTS
Visibility
10,000+ meters
Flight Rules
VFR
Cloud Levels
  • Scattered at 2,400' AGL
Temperature
22°C / 72°F
Dewpoint
13°C / 55°F
Humidity
57%
Altimeter
30.12" Hg
Pressure
1019.92 hPa